Tiempo atmosférico en la estación meteorológica de Monterrubio De La Demanda, Burgos (1190 m.)



Fecha
DESCASC
Temp. máxima en grados centígrados (hora)
DESCASC
Temp. mínima en grados centígrados (hora)
DESCASC
Temp. media en grados centígrados
DESCASC
Racha de viento máxima en m/sg (hora)
DESCASC
Velocidad máxima media en intervalos de 10 minutos(hora)
DESCASC
Precipitaciones diarias en mm
DESCASC
Precipitaciones de 00:00 a 06:00 en mm
DESCASC
Precipitaciones de 06:00 a 12:00 en mm
DESCASC
Precipitaciones de 12:00 a 18:00 en mm
DESCASC
Precipitaciones de 18:00 a 24:00 en mm
DESCASC
22-01-2020 3.7 (16:20) -1.2 (23:40) 1.3 12.78 (01:00) 9.72 (00:20) 0 0 0 0 0
21-01-2020 2 (20:50) -3.8 (00:00) -0.9 13.06 (20:40) 10 (20:40) 0.6 0 0 0 0.6
20-01-2020 -2 (13:00) -4.2 (09:10) -3.1 24.72 (01:10) 14.72 (00:50) 0 0 0 0 0
19-01-2020 2.1 (00:10) -2.9 (-00:0) -0.4 25.83 (22:30) 15 (23:20) 4.2 1.8 2.2 0.2 0
18-01-2020 6.6 (17:00) -2.2 (-00:0) 2.2 19.72 (19:20) 10.28 (19:30) 4.8 0 0 1.6 3.2
17-01-2020 5.7 (14:40) -2.1 (-00:0) 1.8 14.72 (08:30) 9.44 (13:00) 5 3.4 1.6 0 0
16-01-2020 10.6 (14:40) 3.9 (00:00) 7.3 14.17 (22:40) 7.5 (11:00) 2 0 0 0 2
15-01-2020 6.3 (23:10) 3.2 (00:00) 4.8 13.33 (03:30) 6.94 (01:50) 0.4 0 0 0.4 0
14-01-2020 5 (23:40) -3.2 (-00:0) 0.9 9.17 (15:50) 6.11 (15:20) 0 0 0 0 0
13-01-2020 7.3 (15:30) -4.6 (-00:0) 1.4 8.89 (16:00) 6.67 (16:40) 0 0 0 0 0
12-01-2020 10.5 (15:30) -7.9 (-00:0) 1.3 8.06 (13:10) 5.83 (12:40) 0 0 0 0 0
11-01-2020 9 (16:00) -3.5 (-00:0) 2.8 7.78 (06:00) 5.28 (06:00) 0 0 0 0 0
10-01-2020 4.1 (14:50) 0.4 (00:00) 2.2 10 (17:40) 5.56 (03:50) 0.2 0 0 0.2 0
09-01-2020 8.4 (12:40) -1 (-00:0) 3.7 9.44 (22:00) 6.39 (14:10) 0.4 0 0 0.2 0.2
08-01-2020 13.8 (15:20) 1.7 (00:00) 7.8 7.78 (13:20) 6.39 (13:30) 0 0 0 0 0
07-01-2020 14.6 (14:10) -2.9 (-00:0) 5.9 5 (14:50) 3.89 (15:00) 0 0 0 0 0
06-01-2020 12.8 (15:20) -2.7 (-00:0) 5.1 6.67 (12:50) 5.28 (12:50) 0 0 0 0 0
05-01-2020 13.9 (15:20) -3.4 (-00:0) 5.2 9.17 (02:10) 6.67 (01:30) 0 0 0 0 0
04-01-2020 6.4 (13:10) 0 (00:00) 3.2 10 (12:40) 7.22 (12:40) 0.2 0.2 0 0 0
03-01-2020 3.6 (15:20) -2.9 (-00:0) 0.3 5.56 (15:30) 3.61 (15:30) 0.2 0 0 0 0.2
02-01-2020 13.1 (13:30) -3.2 (-00:0) 5 7.22 (13:40) 5.28 (14:40) 0 0 0 0 0
01-01-2020 13.4 (15:00) -3.3 (-00:0) 5 5.56 (15:10) 4.17 (15:10) 0 0 0 0 0
31-12-2019 15.5 (14:50) -0.6 (-00:0) 7.4 5.83 (13:10) 4.72 (03:00) 0 0 0 0 0
30-12-2019 -- (--) -- (--) -- -- (--) -- (--) -- 0 0 -- 0
29-12-2019 16 (15:30) -0.3 (00:00) 7.8 7.22 (14:30) 5.56 (14:30) 0 0 0 0 0
28-12-2019 14.7 (15:00) -2 (-00:0) 6.3 7.5 (14:00) 5.83 (14:00) 0 0 0 0 0
27-12-2019 12.5 (14:20) -3.6 (-00:0) 4.5 4.44 (16:30) 3.33 (15:00) 0 0 0 0 0
26-12-2019 9.9 (14:40) -1.1 (-00:0) 4.4 7.5 (04:10) 4.72 (12:30) 0 0 0 0 0

Gráficas

Temp. máximas Temp. mínimas Temp. medias Precipitaciones Rachas de viento máximas Velocidades máximas media en intervalos de 10 minutos

Datos horarios

Fecha y hora oficial Temperatura (ºC) Velocidad del viento (km/h) Dirección del viento Racha (km/h) Dirección de racha Precipitación (mm) Presión (hPa) Tendencia (hPa) Humedad (%)
2020-01-24 23:00:00 2.3 0 Calma 4 Oeste 0 -- -- 95
2020-01-24 22:00:00 2.8 2 Este 5 Sudeste 0.2 -- -- 95
2020-01-24 21:00:00 3.4 3 Sudeste 11 Sudeste 0.2 -- -- 92
2020-01-24 20:00:00 3.7 6 Sudeste 11 Sur 0 -- -- 88
2020-01-24 19:00:00 4.1 6 Sudeste 10 Sudeste 0 -- -- 83
2020-01-24 18:00:00 4.8 4 Sudeste 13 Oeste 0 -- -- 80
2020-01-24 17:00:00 5.2 6 Oeste 13 Sudeste 0 -- -- 79
2020-01-24 16:00:00 6 4 Sur 8 Sudeste 0 -- -- 75
2020-01-24 15:00:00 6 0 Calma 11 Sur 0 -- -- 78
2020-01-24 14:00:00 6.3 3 Sudeste 19 Norte 0 -- -- 77
2020-01-24 13:00:00 5.9 3 Norte 17 Sur 0 -- -- 77
2020-01-24 12:00:00 5.8 10 Sudeste 20 Sudeste 0 -- -- 78
2020-01-24 11:00:00 1.6 3 Sudeste 6 Sudeste 0 -- -- 98
2020-01-24 10:00:00 0.5 3 Sudeste 6 Sudeste 0 -- -- 98
2020-01-24 09:00:00 -0.2 0 Calma 5 Sudeste 0 -- -- 97
2020-01-24 08:00:00 -0.4 2 Sudeste 5 Sur 0 -- -- 97
2020-01-24 07:00:00 -0.3 0 Calma 5 Noroeste 0 -- -- 97
2020-01-24 06:00:00 -0.3 0 Calma 8 Oeste 0 -- -- 96
2020-01-24 05:00:00 -0.3 2 Sudeste 7 Oeste 0 -- -- 96
2020-01-24 04:00:00 1 6 Este 14 Este 0 -- -- 97
2020-01-24 03:00:00 -1 0 Calma 6 Norte 0 -- -- 97
2020-01-24 02:00:00 -1.1 0 Calma 5 Norte 0 -- -- 96
2020-01-24 01:00:00 -0.9 2 Noroeste 7 Este 0 -- -- 94
2020-01-24 00:00:00 -0.5 0 Calma 10 Este 0 -- -- 91
2020-01-23 23:00:00 0.7 6 Sudeste 14 Sudeste 0 -- -- 91
2020-01-23 22:00:00 1.6 9 Sudeste 12 Este 0 -- -- 90
2020-01-23 21:00:00 2.6 6 Sudeste 15 Sur 0 -- -- 85
2020-01-23 20:00:00 3.2 10 Sur 22 Sudeste 0 -- -- 83
2020-01-23 19:00:00 3.4 8 Sudeste 13 Sudeste 0 -- -- 80
2020-01-23 18:00:00 5.6 10 Oeste 17 Oeste 0 -- -- 71
2020-01-23 17:00:00 7.3 5 Sudoeste 13 Noroeste 0 -- -- 64
2020-01-23 16:00:00 7.2 7 Noroeste 12 Noroeste 0 -- -- 65
2020-01-23 15:00:00 6.1 2 Oeste 5 Sur 0 -- -- 78
2020-01-23 14:00:00 4 0 Calma 9 Noroeste 0 -- -- 84
2020-01-23 13:00:00 3.3 5 Sur 12 Sudeste 0 -- -- 92
2020-01-23 12:00:00 0.3 9 Sudeste 13 Sudeste 0.2 -- -- 100
2020-01-23 11:00:00 -1.8 0 Calma 7 Sudeste 0 -- -- 99
2020-01-23 10:00:00 -2.9 5 Sudeste 6 Sudeste 0 -- -- 99
2020-01-23 09:00:00 -2.8 4 Sudeste 7 Sudeste 0 -- -- 99
2020-01-23 08:00:00 -4.3 0 Calma 6 Noroeste 0 -- -- 99
2020-01-23 07:00:00 -3.5 0 Calma 8 Este 0 -- -- 99
2020-01-23 06:00:00 -2.9 0 Calma 4 Este 0 -- -- 100
2020-01-23 05:00:00 -3.9 2 Sudeste 7 Noroeste 0 -- -- 99
2020-01-23 04:00:00 -2.6 0 Calma 4 Sudeste 0 -- -- 100
2020-01-23 03:00:00 -2 0 Calma 5 Noroeste 0 -- -- 97
2020-01-23 02:00:00 -1.8 2 Sudeste 9 Sudeste 0 -- -- 99
2020-01-23 01:00:00 -1.4 0 Calma 15 Sudeste 0 -- -- 100
2020-01-23 00:00:00 -1.2 6 Sudeste 13 Sudeste 0 -- -- 99
2020-01-22 23:00:00 -0.9 0 Calma 15 Sudeste 0 -- -- 99
2020-01-22 22:00:00 -0.1 3 Sudeste 10 Sudeste 0 -- -- 98
2020-01-22 21:00:00 0.3 5 Este 14 Sudeste 0 -- -- 98
2020-01-22 20:00:00 0.4 14 Sudeste 23 Sudeste 0 -- -- 97
2020-01-22 19:00:00 1.5 17 Sudeste 25 Sudeste 0 -- -- 96
2020-01-22 18:00:00 1.8 15 Sudeste 35 Sudeste 0 -- -- 94
2020-01-22 17:00:00 3.2 21 Sudeste 31 Sudeste 0 -- -- 88
2020-01-22 16:00:00 3.5 20 Sudeste 27 Sudeste 0 -- -- 90
2020-01-22 15:00:00 3.2 15 Sudeste 23 Sudeste 0 -- -- 89
2020-01-22 14:00:00 2.9 20 Sudeste 25 Sudeste 0 -- -- 87
2020-01-22 13:00:00 2.4 17 Sudeste 23 Sudeste 0 -- -- 89
2020-01-22 12:00:00 2.7 15 Sudeste 19 Sudeste 0 -- -- 87
2020-01-22 11:00:00 1.5 13 Sudeste 18 Sudeste 0 -- -- 100
2020-01-22 10:00:00 0 4 Noroeste 8 Este 0 -- -- 100
2020-01-22 09:00:00 -0.7 4 Sudeste 12 Sudeste 0 -- -- 100
2020-01-22 08:00:00 -0.5 2 Sudeste 14 Sudeste 0 -- -- 100
2020-01-22 07:00:00 -0.2 15 Sudeste 22 Sudeste 0 -- -- 100
2020-01-22 06:00:00 -0.3 12 Sudeste 19 Sudeste 0 -- -- 100
2020-01-22 05:00:00 -0.1 17 Sudeste 30 Sudeste 0 -- -- 100
2020-01-22 04:00:00 -0.2 20 Sudeste 36 Sudeste 0 -- -- 100
2020-01-22 03:00:00 -0.3 26 Sudeste 43 Sudeste 0 -- -- 99
2020-01-22 02:00:00 -0.4 29 Sudeste 46 Sudeste 0 -- -- 98
2020-01-22 01:00:00 -0.2 34 Sudeste 46 Sudeste 0 -- -- 97
2020-01-22 00:00:00 0 32 Sudeste 43 Sudeste 0 -- -- 97
2020-01-21 23:00:00 -0.4 30 Sudeste 44 Sudeste 0 -- -- 96
2020-01-21 22:00:00 0.7 33 Sudeste 45 Sudeste 0.2 -- -- 95
2020-01-21 21:00:00 2 33 Sudeste 47 Sudeste 0.4 -- -- 92
2020-01-21 20:00:00 1.3 29 Sudeste 44 Sudeste 0 -- -- 98
2020-01-21 19:00:00 -0.8 21 Sudeste 38 Sudeste 0 -- -- 99
2020-01-21 18:00:00 -1.5 24 Sudeste 39 Sudeste 0 -- -- 99
2020-01-21 17:00:00 -1.5 23 Sudeste 33 Sudeste 0 -- -- 99
2020-01-21 16:00:00 -1.4 21 Sudeste 33 Sudeste 0 -- -- 99
2020-01-21 15:00:00 -1.3 18 Sudeste 32 Sudeste 0 -- -- 98
2020-01-21 14:00:00 -1.2 23 Sudeste 33 Sudeste 0 -- -- 98
2020-01-21 13:00:00 -1.1 22 Sudeste 34 Sudeste 0 -- -- 96
2020-01-21 12:00:00 -1.2 26 Sudeste 41 Sudeste 0 -- -- 95
2020-01-21 11:00:00 -2.1 21 Sudeste 32 Sudeste 0 -- -- 97
2020-01-21 10:00:00 -2.5 13 Sudeste 26 Sudeste 0 -- -- 96
2020-01-21 09:00:00 -2.8 15 Sudeste 24 Sudeste 0 -- -- 96
2020-01-21 08:00:00 -3.2 11 Sudeste 16 Sudeste 0 -- -- 95
2020-01-21 07:00:00 -3.3 14 Sudeste 29 Sudeste 0 -- -- 95
2020-01-21 06:00:00 -3.3 16 Sudeste 27 Sudeste 0 -- -- 94
2020-01-21 05:00:00 -3.1 5 Sudeste 20 Sudeste 0 -- -- 94
2020-01-21 04:00:00 -3.3 11 Sudeste 23 Sudeste 0 -- -- 94
2020-01-21 03:00:00 -3.1 16 Sudeste 25 Sudeste 0 -- -- 94
2020-01-21 02:00:00 -3.2 15 Sudeste 31 Sudeste 0 -- -- 93
2020-01-21 01:00:00 -3.6 15 Sudeste 31 Sudeste 0 -- -- 92
2020-01-21 00:00:00 -3.8 15 Sudeste 37 Sudeste 0 -- -- 91
2020-01-20 23:00:00 -4.1 23 Sudeste 37 Este 0 -- -- 90
2020-01-20 22:00:00 -4.2 22 Sudeste 39 Sudeste 0 -- -- 90
2020-01-20 21:00:00 -4.1 21 Sudeste 41 Sudeste 0 -- -- 88
2020-01-20 20:00:00 -3.9 22 Sudeste 37 Sudeste 0 -- -- 86
2020-01-20 19:00:00 -3.8 14 Sudeste 27 Sudeste 0 -- -- 85
2020-01-20 18:00:00 -3.6 14 Sudeste 31 Sudeste 0 -- -- 84
2020-01-20 17:00:00 -3.4 18 Sudeste 36 Sudeste 0 -- -- 84
2020-01-20 16:00:00 -2.9 23 Sudeste 33 Sudeste 0 -- -- 82
2020-01-20 15:00:00 -3.2 26 Sudeste 41 Este 0 -- -- 80
2020-01-20 14:00:00 -3 23 Sudeste 32 Sudeste 0 -- -- 79
2020-01-20 13:00:00 -2 17 Sudeste 30 Sudeste 0 -- -- 75
2020-01-20 12:00:00 -3.6 15 Este 39 Este 0 -- -- 79
2020-01-20 11:00:00 -4.1 23 Este 47 Este 0 -- -- 79
2020-01-20 10:00:00 -4 9 Sudeste 44 Sudeste 0 -- -- 73
2020-01-20 09:00:00 -4 18 Sudeste 41 Sudeste 0 -- -- 72
2020-01-20 08:00:00 -3.8 15 Sudeste 58 Sudeste 0 -- -- 70
2020-01-20 07:00:00 -3.6 32 Sudeste 67 Sur 0 -- -- 69
2020-01-20 06:00:00 -4 30 Este 85 Este 0 -- -- 78
2020-01-20 05:00:00 -3.8 41 Este 76 Este 0 -- -- 78
2020-01-20 04:00:00 -3.7 32 Este 77 Este 0 -- -- 78
2020-01-20 03:00:00 -3.6 37 Este 82 Sudeste 0 -- -- 78
2020-01-20 02:00:00 -3.3 42 Este 89 Este 0 -- -- 75
2020-01-20 01:00:00 -3.2 47 Este 83 Este 0 -- -- 76
2020-01-20 00:00:00 -2.9 49 Este 85 Este 0 -- -- 73
2020-01-19 23:00:00 -2.4 46 Sudeste 93 Sudeste 0 -- -- 74
2020-01-19 22:00:00 -2.3 41 Este 80 Este 0 -- -- 72
2020-01-19 21:00:00 -2 43 Este 85 Este 0 -- -- 74
2020-01-19 20:00:00 -2 44 Este 91 Sudeste 0 -- -- 78
2020-01-19 19:00:00 -2 41 Sudeste 85 Sudeste 0 -- -- 77
2020-01-19 18:00:00 -1.6 33 Este 77 Este 0 -- -- 75
2020-01-19 17:00:00 -1 33 Este 75 Este 0 -- -- 77
2020-01-19 16:00:00 -0.6 39 Este 73 Este 0 -- -- 77
2020-01-19 15:00:00 -0.2 40 Este 76 Este 0 -- -- 78
2020-01-19 14:00:00 0.1 30 Este 72 Nordeste 0.2 -- -- 79
2020-01-19 13:00:00 -0.2 41 Este 87 Nordeste 0 -- -- 80
2020-01-19 12:00:00 -0.4 0 Calma 4 Nordeste 0 -- -- 85
2020-01-19 11:00:00 -0.3 0 Calma -- -- 0 -- -- 95
2020-01-19 10:00:00 -0.7 0 Calma -- -- 0 -- -- 97
2020-01-19 09:00:00 -1 0 Calma 79 Este 0 -- -- 98
2020-01-19 08:00:00 0.5 36 Este 76 Este 0.8 -- -- 94
2020-01-19 07:00:00 1.6 28 Este 59 Este 1.4 -- -- 90
2020-01-19 06:00:00 1.3 11 Sudeste 34 Este 0.2 -- -- 99
2020-01-19 05:00:00 0.4 0 Calma 14 Oeste 0.4 -- -- 98
2020-01-19 04:00:00 1 6 Oeste 24 Oeste 0.8 -- -- 96
2020-01-19 03:00:00 1.7 14 Oeste 32 Noroeste 0.2 -- -- 95
2020-01-19 02:00:00 2.1 9 Noroeste 29 Este 0 -- -- 90
2020-01-19 01:00:00 1.7 7 Oeste 25 Norte 0.2 -- -- 92
2020-01-19 00:00:00 1.9 10 Nordeste 22 Este 0 -- -- 96
2020-01-18 23:00:00 1 16 Sudeste 22 Sudeste 0 -- -- 96
2020-01-18 22:00:00 1.6 9 Este 19 Este 0 -- -- 90
2020-01-18 21:00:00 2.1 9 Este 23 Noroeste 0 -- -- 90
2020-01-18 20:00:00 2.8 6 Nordeste 71 Noroeste 3 -- -- 90
2020-01-18 19:00:00 6.2 32 Oeste 52 Oeste 0.2 -- -- 89
2020-01-18 18:00:00 6.6 23 Oeste 44 Oeste 0.6 -- -- 95
2020-01-18 17:00:00 6.6 24 Oeste 39 Oeste 0.2 -- -- 96
2020-01-18 16:00:00 5.7 6 Oeste 28 Oeste 0.2 -- -- 96
2020-01-18 15:00:00 5.3 13 Noroeste 27 Noroeste 0.2 -- -- 96
2020-01-18 14:00:00 4.5 10 Noroeste 15 Noroeste 0.4 -- -- 95
2020-01-18 13:00:00 4.2 8 Oeste 22 Oeste 0 -- -- 88
2020-01-18 12:00:00 3.9 8 Noroeste 19 Noroeste 0 -- -- 84
2020-01-18 11:00:00 3.6 9 Noroeste 16 Noroeste 0 -- -- 83
2020-01-18 10:00:00 1.1 6 Noroeste 13 Oeste 0 -- -- 95
2020-01-18 09:00:00 -0.6 3 Noroeste 6 Norte 0 -- -- 97
2020-01-18 08:00:00 -0.9 3 Este 9 Sudoeste 0 -- -- 96
2020-01-18 07:00:00 -0.8 0 Calma 7 Oeste 0 -- -- 98
2020-01-18 06:00:00 -0.9 8 Oeste 13 Oeste 0 -- -- 96
2020-01-18 05:00:00 -1.2 5 Este 8 Este 0 -- -- 97
2020-01-18 04:00:00 -1.5 0 Calma 6 Noroeste 0 -- -- 97
2020-01-18 03:00:00 -1.6 5 Noroeste 6 Noroeste 0 -- -- 97
2020-01-18 02:00:00 -1.4 3 Oeste 10 Noroeste 0 -- -- 95
2020-01-18 01:00:00 -2 0 Calma 6 Oeste 0 -- -- 96
2020-01-18 00:00:00 -2.1 0 Calma 6 Nordeste 0 -- -- 94
2020-01-17 23:00:00 -1.1 3 Noroeste 5 Nordeste 0 -- -- 91
2020-01-17 22:00:00 -0.4 0 Calma 5 Noroeste 0 -- -- 88
2020-01-17 21:00:00 1.1 3 Noroeste 6 Norte 0 -- -- 85
2020-01-17 20:00:00 1.2 3 Nordeste 17 Noroeste 0 -- -- 84
2020-01-17 19:00:00 2.7 14 Noroeste 23 Noroeste 0 -- -- 77
2020-01-17 18:00:00 3.3 16 Noroeste 28 Oeste 0 -- -- 73
2020-01-17 17:00:00 4.3 18 Oeste 35 Oeste 0 -- -- 69
2020-01-17 16:00:00 4.9 26 Oeste 47 Oeste 0 -- -- 68
2020-01-17 15:00:00 5.6 32 Oeste 44 Noroeste 0 -- -- 69
2020-01-17 14:00:00 4.8 22 Noroeste 45 Noroeste 0 -- -- 78
2020-01-17 13:00:00 4.9 34 Oeste 48 Oeste 0 -- -- 79
2020-01-17 12:00:00 4.5 31 Oeste 43 Oeste 0 -- -- 92
2020-01-17 11:00:00 3.8 22 Oeste 38 Oeste 0 -- -- 94
2020-01-17 10:00:00 3.7 29 Oeste 43 Oeste 0.4 -- -- 97
2020-01-17 09:00:00 3.6 28 Oeste 53 Oeste 0.4 -- -- 98
2020-01-17 08:00:00 4 27 Oeste 40 Oeste 0 -- -- 96
2020-01-17 07:00:00 4 24 Oeste 39 Oeste 0.8 -- -- 97
2020-01-17 06:00:00 3.9 23 Oeste 35 Oeste 0.8 -- -- 96
2020-01-17 05:00:00 4 20 Oeste 33 Oeste 0 -- -- 95
2020-01-17 04:00:00 4.1 21 Oeste 34 Oeste 0 -- -- 94
2020-01-17 03:00:00 4 20 Oeste 33 Oeste 0.6 -- -- 93
2020-01-17 02:00:00 4.1 18 Oeste 27 Oeste 1.4 -- -- 91
2020-01-17 01:00:00 4.4 19 Oeste 35 Oeste 0.6 -- -- 89
2020-01-17 00:00:00 3.9 10 Oeste 27 Oeste 1.4 -- -- 92
2020-01-16 23:00:00 4.3 17 Oeste 51 Oeste 0.6 -- -- 85
2020-01-16 22:00:00 6.6 27 Oeste 51 Oeste 0 -- -- 65
2020-01-16 21:00:00 6.8 17 Noroeste 37 Oeste 0 -- -- 63
2020-01-16 20:00:00 7.4 17 Oeste 35 Sudoeste 0 -- -- 59
2020-01-16 19:00:00 7.3 16 Oeste 27 Oeste 0 -- -- 63
2020-01-16 18:00:00 8.2 13 Oeste 32 Oeste 0 -- -- 64
2020-01-16 17:00:00 10.2 15 Oeste 30 Oeste 0 -- -- 64
2020-01-16 16:00:00 9.7 15 Oeste 42 Oeste 0 -- -- 70
2020-01-16 15:00:00 9.8 25 Oeste 38 Sudoeste 0 -- -- 70
2020-01-16 14:00:00 9.6 22 Oeste 47 Oeste 0 -- -- 72
2020-01-16 13:00:00 8.1 8 Noroeste 21 Noroeste 0 -- -- 75
2020-01-16 12:00:00 7.7 18 Noroeste 39 Oeste 0 -- -- 78
2020-01-16 11:00:00 8.8 27 Noroeste 40 Oeste 0 -- -- 74
2020-01-16 10:00:00 6.6 21 Noroeste 32 Noroeste 0 -- -- 85
2020-01-16 09:00:00 4.9 9 Noroeste 18 Noroeste 0 -- -- 90
2020-01-16 08:00:00 5.4 9 Noroeste 17 Norte 0 -- -- 92
2020-01-16 07:00:00 5.2 6 Noroeste 13 Noroeste 0 -- -- 92
2020-01-16 06:00:00 5.2 4 Oeste 18 Noroeste 0 -- -- 91
2020-01-16 05:00:00 4.6 4 Noroeste 17 Noroeste 0 -- -- 94
2020-01-16 04:00:00 6.4 11 Noroeste 21 Noroeste 0 -- -- 90
2020-01-16 03:00:00 6.4 5 Norte 15 Noroeste 0 -- -- 92
2020-01-16 02:00:00 6.4 8 Noroeste 18 Oeste 0 -- -- 91
2020-01-16 01:00:00 6.7 13 Oeste 22 Oeste 0 -- -- 91
2020-01-16 00:00:00 6 9 Noroeste 21 Oeste 0 -- -- 94
2020-01-15 23:00:00 6.2 11 Noroeste 19 Noroeste 0 -- -- 94
2020-01-15 22:00:00 5.9 13 Noroeste 19 Noroeste 0 -- -- 92
2020-01-15 21:00:00 5.7 8 Noroeste 13 Norte 0 -- -- 91
2020-01-15 20:00:00 5.5 7 Norte 13 Noroeste 0 -- -- 91
2020-01-15 19:00:00 5.6 6 Noroeste 29 Oeste 0 -- -- 91
2020-01-15 18:00:00 6 19 Oeste 26 Noroeste 0 -- -- 89
2020-01-15 17:00:00 6.1 7 Oeste 29 Oeste 0 -- -- 88
2020-01-15 16:00:00 5.7 12 Oeste 24 Oeste 0 -- -- 88
2020-01-15 15:00:00 5.5 18 Oeste 33 Oeste 0 -- -- 87
2020-01-15 14:00:00 5.7 21 Oeste 33 Oeste 0 -- -- 90
2020-01-15 13:00:00 4.4 10 Noroeste 31 Noroeste 0.4 -- -- 91
2020-01-15 12:00:00 5 17 Noroeste 45 Noroeste 0 -- -- 79
2020-01-15 11:00:00 6.1 22 Noroeste 39 Oeste 0 -- -- 67
2020-01-15 10:00:00 4.7 17 Noroeste 30 Noroeste 0 -- -- 75
2020-01-15 09:00:00 4.3 16 Noroeste 30 Noroeste 0 -- -- 77
2020-01-15 08:00:00 3.9 10 Noroeste 26 Noroeste 0 -- -- 79
2020-01-15 07:00:00 3.6 16 Noroeste 25 Noroeste 0 -- -- 82
2020-01-15 06:00:00 3.2 9 Noroeste 23 Noroeste 0 -- -- 83
2020-01-15 05:00:00 4.1 16 Oeste 41 Oeste 0 -- -- 80
2020-01-15 04:00:00 3.9 22 Oeste 48 Oeste 0 -- -- 81
2020-01-15 03:00:00 4.3 22 Noroeste 41 Noroeste 0 -- -- 80
2020-01-15 02:00:00 4.8 23 Oeste 39 Oeste 0 -- -- 80
2020-01-15 01:00:00 5.2 16 Oeste 39 Oeste 0 -- -- 78
2020-01-15 00:00:00 5 14 Oeste 24 Oeste 0 -- -- 78
2020-01-14 23:00:00 4.7 10 Oeste 31 Oeste 0 -- -- 80
2020-01-14 22:00:00 4.7 14 Oeste 32 Oeste 0 -- -- 79
2020-01-14 21:00:00 4 4 Noroeste 21 Oeste 0 -- -- 80
2020-01-14 20:00:00 4.6 13 Oeste 23 Oeste 0 -- -- 77
2020-01-14 19:00:00 4.1 7 Noroeste 14 Noroeste 0 -- -- 78
2020-01-14 18:00:00 4.1 11 Oeste 31 Oeste 0 -- -- 76
2020-01-14 17:00:00 4.1 15 Oeste 29 Oeste 0 -- -- 78
2020-01-14 16:00:00 4.4 17 Oeste 33 Oeste 0 -- -- 76
2020-01-14 15:00:00 4.1 22 Oeste 32 Oeste 0 -- -- 78
2020-01-14 14:00:00 3.1 16 Oeste 29 Oeste 0 -- -- 83
2020-01-14 13:00:00 2.7 15 Noroeste 28 Oeste 0 -- -- 87
2020-01-14 12:00:00 1.5 18 Noroeste 26 Noroeste 0 -- -- 89
2020-01-14 11:00:00 1.4 14 Noroeste 18 Noroeste 0 -- -- 90
2020-01-14 10:00:00 0.8 9 Noroeste 15 Noroeste 0 -- -- 93
2020-01-14 09:00:00 0.3 8 Norte 15 Norte 0 -- -- 91
2020-01-14 08:00:00 0.4 9 Noroeste 15 Noroeste 0 -- -- 90
2020-01-14 07:00:00 0 8 Noroeste 15 Noroeste 0 -- -- 93
2020-01-14 06:00:00 0 9 Noroeste 19 Oeste 0 -- -- 93
2020-01-14 05:00:00 0.2 14 Noroeste 21 Oeste 0 -- -- 92
2020-01-14 04:00:00 0.3 12 Noroeste 23 Oeste 0 -- -- 90
2020-01-14 03:00:00 0.5 14 Noroeste 24 Noroeste 0 -- -- 83
2020-01-14 02:00:00 -1.1 13 Noroeste 20 Noroeste 0 -- -- 84
2020-01-14 01:00:00 -0.5 8 Norte 12 Norte 0 -- -- 81
2020-01-14 00:00:00 -3.1 4 Noroeste 11 Oeste 0 -- -- 87
2020-01-13 23:00:00 -2.3 8 Oeste 12 Oeste 0 -- -- 85
2020-01-13 22:00:00 -2.6 4 Noroeste 12 Norte 0 -- -- 86
2020-01-13 21:00:00 -1 6 Noroeste 16 Norte 0 -- -- 80
2020-01-13 20:00:00 1.7 12 Norte 18 Noroeste 0 -- -- 74
2020-01-13 19:00:00 1.9 10 Norte 18 Noroeste 0 -- -- 71
2020-01-13 18:00:00 3.4 13 Noroeste 24 Oeste 0 -- -- 67
2020-01-13 17:00:00 5.3 22 Noroeste 32 Oeste 0 -- -- 56
2020-01-13 16:00:00 7 23 Oeste 32 Oeste 0 -- -- 41
2020-01-13 15:00:00 6.7 19 Oeste 28 Oeste 0 -- -- 45
2020-01-13 14:00:00 6.9 19 Oeste 26 Oeste 0 -- -- 37
2020-01-13 13:00:00 7.2 15 Noroeste 22 Noroeste 0 -- -- 38
2020-01-13 12:00:00 4.5 6 Noroeste 11 Noroeste 0 -- -- 66
2020-01-13 11:00:00 -0.4 2 Oeste 6 Oeste 0 -- -- 75
2020-01-13 10:00:00 -3 3 Noroeste 5 Noroeste 0 -- -- 82
2020-01-13 09:00:00 -4.6 0 Calma 4 Noroeste 0 -- -- 82
2020-01-13 08:00:00 -4.3 0 Calma 2 Norte 0 -- -- 81
2020-01-13 07:00:00 -3.9 0 Calma 2 Sudeste 0 -- -- 83
2020-01-13 06:00:00 -4.1 0 Calma 2 Oeste 0 -- -- 84
2020-01-13 05:00:00 -4.3 0 Calma 2 Noroeste 0 -- -- 83
2020-01-13 04:00:00 -3.9 0 Calma 2 Este 0 -- -- 82
2020-01-13 03:00:00 -3.2 0 Calma 2 Este 0 -- -- 77
2020-01-13 02:00:00 -3.2 0 Calma 0 Calma 0 -- -- 76
2020-01-13 01:00:00 -2.7 0 Calma 4 Noroeste 0 -- -- 73
2020-01-13 00:00:00 -2.2 0 Calma 2 Oeste 0 -- -- 73
2020-01-12 23:00:00 -1.6 0 Calma 5 Oeste 0 -- -- 72
2020-01-12 22:00:00 -0.6 0 Calma 11 Este 0 -- -- 70
2020-01-12 21:00:00 1.2 8 Sudeste 15 Este 0 -- -- 65
2020-01-12 20:00:00 3.2 13 Este 27 Este 0 -- -- 67
2020-01-12 19:00:00 3.1 8 Sudeste 16 Este 0 -- -- 51
2020-01-12 18:00:00 6.7 4 Noroeste 18 Este 0 -- -- 61
2020-01-12 17:00:00 9.5 14 Sudeste 21 Sudeste 0 -- -- 25
2020-01-12 16:00:00 10.4 17 Sudeste 22 Sudeste 0 -- -- 23
2020-01-12 15:00:00 10.2 17 Sudeste 24 Sudeste 0 -- -- 25
2020-01-12 14:00:00 9.1 19 Sudeste 29 Sudeste 0 -- -- 26
2020-01-12 13:00:00 7.7 21 Sudeste 27 Sudeste 0 -- -- 30
2020-01-12 12:00:00 5.5 12 Sudeste 18 Sudeste 0 -- -- 42
2020-01-12 11:00:00 -1.4 3 Oeste 5 Oeste 0 -- -- 84
2020-01-12 10:00:00 -4.2 0 Calma 9 Sudeste 0 -- -- 87
2020-01-12 09:00:00 -6.6 0 Calma 8 Este 0 -- -- 90
2020-01-12 08:00:00 -6.7 0 Calma 4 Noroeste 0 -- -- 90
2020-01-12 07:00:00 -7.4 0 Calma 5 Oeste 0 -- -- 92
2020-01-12 06:00:00 -7.2 2 Oeste 6 Noroeste 0 -- -- 91
2020-01-12 05:00:00 -7 0 Calma 2 Este 0 -- -- 91
2020-01-12 04:00:00 -6.8 0 Calma 5 Oeste 0 -- -- 89
2020-01-12 03:00:00 -5.8 0 Calma 3 Noroeste 0 -- -- 89
2020-01-12 02:00:00 -4.7 3 Noroeste 4 Noroeste 0 -- -- 89
2020-01-12 01:00:00 -4.2 0 Calma 5 Oeste 0 -- -- 91
2020-01-12 00:00:00 -3.4 2 Oeste 4 Noroeste 0 -- -- 90
2020-01-11 23:00:00 -2.7 0 Calma 4 Este 0 -- -- 88
2020-01-11 22:00:00 -2.4 0 Calma 3 Oeste 0 -- -- 87
2020-01-11 21:00:00 -1.5 3 Este 4 Este 0 -- -- 85
2020-01-11 20:00:00 0.1 2 Noroeste 8 Noroeste 0 -- -- 79
2020-01-11 19:00:00 2.3 5 Noroeste 11 Noroeste 0 -- -- 72
2020-01-11 18:00:00 4.7 6 Noroeste 17 Oeste 0 -- -- 65
2020-01-11 17:00:00 8 13 Oeste 16 Oeste 0 -- -- 52
2020-01-11 16:00:00 9 7 Oeste 14 Oeste 0 -- -- 42
2020-01-11 15:00:00 8.5 8 Oeste 14 Oeste 0 -- -- 43
2020-01-11 14:00:00 7.7 7 Oeste 13 Oeste 0 -- -- 45
2020-01-11 13:00:00 5.9 2 Oeste 15 Sudeste 0 -- -- 56
2020-01-11 12:00:00 2.5 13 Sudeste 19 Sudeste 0 -- -- 79
2020-01-11 11:00:00 0.4 15 Sudeste 21 Sudeste 0 -- -- 89
2020-01-11 10:00:00 -1.3 8 Sudeste 17 Este 0 -- -- 95
2020-01-11 09:00:00 -2.9 14 Este 18 Sudeste 0 -- -- 95
2020-01-11 08:00:00 -3 8 Este 13 Sudeste 0 -- -- 95
2020-01-11 07:00:00 -2.4 2 Noroeste 27 Este 0 -- -- 91
2020-01-11 06:00:00 0 19 Este 28 Este 0 -- -- 87
2020-01-11 05:00:00 -0.4 14 Este 19 Este 0 -- -- 88
2020-01-11 04:00:00 -0.8 8 Este 12 Este 0 -- -- 90
2020-01-11 03:00:00 -0.4 6 Este 15 Este 0 -- -- 89
2020-01-11 02:00:00 -0.5 9 Nordeste 12 Nordeste 0 -- -- 95
2020-01-11 01:00:00 -0.3 4 Este 8 Este 0 -- -- 93
2020-01-11 00:00:00 0.4 3 Este 18 Nordeste 0 -- -- 91
2020-01-10 23:00:00 1.6 10 Nordeste 25 Nordeste 0 -- -- 87
2020-01-10 22:00:00 1.3 6 Nordeste 13 Nordeste 0 -- -- 90
2020-01-10 21:00:00 1.9 3 Noroeste 13 Sudeste 0 -- -- 85
2020-01-10 20:00:00 2.4 6 Nordeste 24 Este 0 -- -- 80
2020-01-10 19:00:00 2.4 10 Este 35 Sudeste 0 -- -- 80
2020-01-10 18:00:00 2.4 16 Este 36 Este 0.2 -- -- 83
2020-01-10 17:00:00 3 12 Este 24 Este 0 -- -- 83
2020-01-10 16:00:00 3.5 3 Norte 31 Este 0 -- -- 78
2020-01-10 15:00:00 4 8 Nordeste 29 Nordeste 0 -- -- 76
2020-01-10 14:00:00 3.9 7 Norte 19 Norte 0 -- -- 74
2020-01-10 13:00:00 3.4 7 Sudoeste 26 Norte 0 -- -- 73
2020-01-10 12:00:00 3 3 Sudoeste 23 Este 0 -- -- 76
2020-01-10 11:00:00 2.4 5 Norte 17 Nordeste 0 -- -- 77
2020-01-10 10:00:00 1.9 7 Nordeste 32 Nordeste 0 -- -- 77
2020-01-10 09:00:00 1.8 10 Nordeste 34 Oeste 0 -- -- 76
2020-01-10 08:00:00 1.8 8 Norte 27 Norte 0 -- -- 77
2020-01-10 07:00:00 2.1 5 Noroeste 25 Oeste 0 -- -- 79
2020-01-10 06:00:00 2.1 9 Norte 21 Norte 0 -- -- 81
2020-01-10 05:00:00 1.7 8 Este 21 Este 0 -- -- 82
2020-01-10 04:00:00 2.1 10 Nordeste 30 Nordeste 0 -- -- 82
2020-01-10 03:00:00 2 10 Nordeste 20 Este 0 -- -- 87
2020-01-10 02:00:00 2 3 Noroeste 9 Noroeste 0 -- -- 94
2020-01-10 01:00:00 1.9 3 Este 16 Oeste 0 -- -- 92
2020-01-10 00:00:00 2.8 10 Noroeste 29 Noroeste 0 -- -- 87
2020-01-09 23:00:00 4.6 17 Noroeste 29 Noroeste 0 -- -- 93
2020-01-09 22:00:00 5.4 19 Noroeste 34 Noroeste 0 -- -- 93
2020-01-09 21:00:00 6 12 Oeste 20 Oeste 0 -- -- 99
2020-01-09 20:00:00 5.8 14 Noroeste 20 Noroeste 0 -- -- 98
2020-01-09 19:00:00 5.7 12 Oeste 21 Noroeste 0.2 -- -- 97
2020-01-09 18:00:00 5.8 14 Oeste 26 Noroeste 0.2 -- -- 95
2020-01-09 17:00:00 6.3 10 Noroeste 24 Oeste 0 -- -- 91
2020-01-09 16:00:00 6.3 13 Oeste 27 Noroeste 0 -- -- 88
2020-01-09 15:00:00 6.8 10 Noroeste 33 Oeste 0 -- -- 87
2020-01-09 14:00:00 7.2 19 Oeste 30 Oeste 0 -- -- 82
2020-01-09 13:00:00 8.2 12 Noroeste 26 Noroeste 0 -- -- 80
2020-01-09 12:00:00 7.9 19 Noroeste 26 Noroeste 0 -- -- 78
2020-01-09 11:00:00 3.9 3 Sudoeste 8 Oeste 0 -- -- 94
2020-01-09 10:00:00 0.8 0 Calma 8 Oeste 0 -- -- 98
2020-01-09 09:00:00 -0.5 2 Noroeste 5 Noroeste 0 -- -- 97
2020-01-09 08:00:00 -0.5 0 Calma 5 Noroeste 0 -- -- 97
2020-01-09 07:00:00 -0.1 0 Calma 4 Oeste 0 -- -- 99
2020-01-09 06:00:00 0.2 2 Noroeste 3 Noroeste 0 -- -- 98
2020-01-09 05:00:00 1 0 Calma 3 Noroeste 0 -- -- 98
2020-01-09 04:00:00 1.3 0 Calma 2 Este 0 -- -- 97
2020-01-09 03:00:00 0.9 0 Calma 3 Sudeste 0 -- -- 96
2020-01-09 02:00:00 1.3 0 Calma 4 Norte 0 -- -- 94
2020-01-09 01:00:00 3 4 Noroeste 6 Noroeste 0 -- -- 96
2020-01-09 00:00:00 2.6 3 Noroeste 5 Oeste 0 -- -- 95
2020-01-08 23:00:00 3.4 3 Noroeste 6 Noroeste 0 -- -- 92
2020-01-08 22:00:00 4 2 Noroeste 5 Noroeste 0 -- -- 90
2020-01-08 21:00:00 4.8 2 Noroeste 5 Oeste 0 -- -- 86
2020-01-08 20:00:00 6.8 0 Calma 4 Este 0 -- -- 79
2020-01-08 19:00:00 8 0 Calma 8 Norte 0 -- -- 77
2020-01-08 18:00:00 10.8 6 Noroeste 20 Oeste 0 -- -- 68
2020-01-08 17:00:00 13.3 10 Oeste 19 Sudeste 0 -- -- 61
2020-01-08 16:00:00 13.7 15 Sudeste 21 Sudeste 0 -- -- 56
2020-01-08 15:00:00 13.7 17 Sudeste 26 Sudeste 0 -- -- 57
2020-01-08 14:00:00 12.5 22 Sudeste 28 Sudeste 0 -- -- 63
2020-01-08 13:00:00 11.8 21 Sudeste 26 Sudeste 0 -- -- 69
2020-01-08 12:00:00 10 22 Sudeste 27 Sudeste 0 -- -- 75
2020-01-08 11:00:00 8.8 15 Sudeste 20 Sudeste 0 -- -- 77
2020-01-08 10:00:00 7 5 Sudeste 14 Este 0 -- -- 79
2020-01-08 09:00:00 6 10 Este 15 Sudeste 0 -- -- 82
2020-01-08 08:00:00 4.6 11 Este 19 Este 0 -- -- 77
2020-01-08 07:00:00 5.7 8 Este 16 Este 0 -- -- 70
2020-01-08 06:00:00 4.5 10 Este 20 Este 0 -- -- 68
2020-01-08 05:00:00 5.1 14 Este 20 Este 0 -- -- 64
2020-01-08 04:00:00 2.4 4 Sudeste 11 Sudeste 0 -- -- 71
2020-01-08 03:00:00 3.1 9 Este 14 Este 0 -- -- 69
2020-01-08 02:00:00 2.2 9 Este 15 Este 0 -- -- 75
2020-01-08 01:00:00 2.2 5 Este 18 Sudeste 0 -- -- 77
2020-01-08 00:00:00 2.2 8 Este 13 Este 0 -- -- 81
2020-01-07 23:00:00 2.3 0 Calma 9 Sudeste 0 -- -- 80
2020-01-07 22:00:00 2.6 2 Este 3 Este 0 -- -- 79
2020-01-07 21:00:00 2.7 0 Calma 4 Oeste 0 -- -- 75
2020-01-07 20:00:00 4.3 0 Calma 6 Noroeste 0 -- -- 66
2020-01-07 19:00:00 5.7 3 Este 5 Sudeste 0 -- -- 63
2020-01-07 18:00:00 8.1 0 Calma 12 Oeste 0 -- -- 57
2020-01-07 17:00:00 11.5 10 Noroeste 15 Oeste 0 -- -- 48
2020-01-07 16:00:00 12.8 12 Oeste 16 Oeste 0 -- -- 40
2020-01-07 15:00:00 13.3 14 Oeste 18 Noroeste 0 -- -- 31
2020-01-07 14:00:00 14.4 3 Oeste 13 Este 0 -- -- 26
2020-01-07 13:00:00 11.6 9 Sudeste 13 Sudeste 0 -- -- 36
2020-01-07 12:00:00 8.1 7 Sudeste 12 Sudeste 0 -- -- 40
2020-01-07 11:00:00 1.7 0 Calma 13 Este 0 -- -- 70
2020-01-07 10:00:00 0.2 8 Este 12 Este 0 -- -- 69
2020-01-07 09:00:00 -2.9 0 Calma 5 Este 0 -- -- 76
2020-01-07 08:00:00 -2.4 5 Este 6 Este 0 -- -- 74
2020-01-07 07:00:00 -2 0 Calma 3 Este 0 -- -- 74
2020-01-07 06:00:00 -2.3 0 Calma 2 Sudeste 0 -- -- 75
2020-01-07 05:00:00 -1.9 2 Oeste 4 Este 0 -- -- 77
2020-01-07 04:00:00 -1.5 2 Este 6 Este 0 -- -- 74
2020-01-07 03:00:00 -2 0 Calma 9 Este 0 -- -- 77
2020-01-07 02:00:00 -1 0 Calma 5 Este 0 -- -- 77
2020-01-07 01:00:00 -1.3 0 Calma 3 Nordeste 0 -- -- 77
2020-01-07 00:00:00 -1 0 Calma 10 Sudeste 0 -- -- 74
2020-01-06 23:00:00 -0.4 5 Este 12 Este 0 -- -- 77
2020-01-06 22:00:00 0.5 0 Calma 15 Sudeste 0 -- -- 71
2020-01-06 21:00:00 2.6 7 Sudeste 13 Sudeste 0 -- -- 63
2020-01-06 20:00:00 2.9 6 Este 9 Sudeste 0 -- -- 63
2020-01-06 19:00:00 6.8 4 Noroeste 6 Norte 0 -- -- 50
2020-01-06 18:00:00 9.1 6 Norte 15 Noroeste 0 -- -- 40
2020-01-06 17:00:00 11.6 9 Oeste 20 Noroeste 0 -- -- 34
2020-01-06 16:00:00 12.6 12 Oeste 19 Oeste 0 -- -- 32
2020-01-06 15:00:00 12.6 15 Oeste 22 Oeste 0 -- -- 30
2020-01-06 14:00:00 12 13 Oeste 20 Oeste 0 -- -- 27
2020-01-06 13:00:00 10.7 18 Oeste 24 Oeste 0 -- -- 28
2020-01-06 12:00:00 7 2 Oeste 4 Oeste 0 -- -- 56
2020-01-06 11:00:00 3.2 2 Oeste 3 Oeste 0 -- -- 62
2020-01-06 10:00:00 -0.2 0 Calma 4 Este 0 -- -- 70